Airport Name : Jacksonville Intl

Other Name : Jacksonville

ICAO : KJAX

IATA : JAX

FAA : JAX

Latitude : 30.494056

Longitude : -81.687861

Country : United States

Local Date and Time : 18 Jul 2024 18:56

 

TAF (Terminal Aerodrome Forecast)

KJAX 182242Z 1823/1918 10007KT P6SM VCTS FEW030CB SCT060 BKN120 FM182315 VRB03KT P6SM FEW060 SCT120 BKN250 FM190800 VRB02KT P6SM FEW020 BKN250 FM191400 23006KT P6SM SCT035 SCT250

 

METAR (METeorological Aerodrome Report)

KJAX 182242Z 07005KT 10SM FEW060 SCT120 BKN170 BKN250 26/23 A3003 RMK AO2 LTG DSNT E AND SE TSE41 T02560228 $

KJAX 182156Z 10007KT 10SM TS FEW030CB SCT060 SCT120 BKN170 BKN250 26/23 A3002 RMK AO2 RAB12E13 TSE19E34B49 SLP165 OCNL LTGICCG VC E TS VC E MOV E P0000 T02560233 $

KJAX 182149Z 12011KT 10SM TS FEW030CB SCT060 SCT120 BKN170 BKN250 26/23 A3003 RMK AO2 RAB12E13 TSE19E34B49 OCNL LTGICCG VC E TS VC E MOV E P0000 T02560228 $

KJAX 182125Z 08009KT 10SM FEW035 SCT060 BKN120 BKN250 25/23 A3003 RMK AO2 LTG DSNT NE-S RAB12E13 TSE19 FRQ LTGIC DSNT E TS DSNT E P0000 T02500233 $

KJAX 182056Z 07005KT 10SM TS SCT035CB BKN060 BKN120 BKN250 26/23 A3005 RMK AO2 LTG DSNT ALQDS RAE52 SLP175 FRQ LTGICCCCG VC N-SE TS VC N-SE MOV SE P0009 60009 T02560233 53001 $

KJAX 182004Z 12011G18KT 080V150 3SM +TSRA BR SCT035CB BKN050 BKN150 OVC250 27/22 A3001 RMK AO2 LTG DSNT N AND S AND NW FRQ LTGICCCCG OHD TS OHD MOV SE P0007 T02670217 $

KJAX 182001Z 03010G17KT 360V070 1SM +TSRA SCT035CB BKN050 BKN150 OVC250 28/22 A3002 RMK AO2 LTG DSNT N AND S AND NW FRQ LTGICCCCG OHD TS OHD MOV SE P0002 T02780217 RVRNO $

KJAX 181956Z 29009KT 8SM TSRA SCT040CB BKN075 BKN150 BKN250 29/21 A3002 RMK AO2 RAB52 TSE36B45 SLP165 FRQ LTGICCCCG OHD TS OHD MOV SE P0000 T02940211 $

KJAX 181945Z VRB04KT 10SM TS SCT040CB BKN075 BKN150 BKN250 32/21 A3000 RMK AO2 LTG DSNT N AND NW TSE36B45 FRQ LTGICCG VC NW TS VC NW MOV E T03170211 $